Terminal Aerodrome Forecast
Issued by NWS

Home | Current Version | Previous Version | Text Only | Print | Product List | Glossary On
Versions: 1 2 3 4 5 6 7 8 9 10 11 12 13 14 15 16
020
FTUS43 KMQT 182320
TAFCMX
TAF
KCMX 182320Z 1900/1924 27007KT P6SM FEW200
     FM190200 25003KT P6SM FEW200
     FM190900 20003KT 4SM BR FEW100
     FM191300 20004KT P6SM FEW070=

USA.gov is the U.S. government's official web portal to all federal, state and local government web resources and services.